Time;durP1;ratioP1;P1;durP2;ratioP2;P2;SDS_P1;SDS_P2;PMS_P1;PMS_P2;Temp;Humidity;BMP_temperature;BMP_pressure;BME280_temperature;BME280_humidity;BME280_pressure;Samples;Min_cycle;Max_cycle;Signal;HPM_P1;HPM_P2
2023/03/19 00:00:53;;;;;;;6.95;5.32;;;;;;;;;;2071165;28;20241;-88
2023/03/19 00:01:54;;;;;;;7.88;5.68;;;;;;;;;;2079290;28;20114;-89
2023/03/19 00:02:54;;;;;;;;;;;;;;;;;;2088636;28;20025;-89
2023/03/19 00:03:55;;;;;;;7.33;5.43;;;;;;;;;;2095816;28;19937;-88
2023/03/19 00:04:55;;;;;;;11.32;5.88;;;;;;;;;;2087626;28;20029;-88
2023/03/19 00:05:56;;;;;;;;;;;;;;;;;;2071670;28;20181;-89
2023/03/19 00:06:56;;;;;;;10.37;6.33;;;;;;;;;;2079256;28;20003;-89
2023/03/19 00:07:56;;;;;;;;;;;;;;;;;;2088534;28;20419;-89
2023/03/19 00:08:57;;;;;;;7.88;5.50;;;;;;;;;;2095623;28;19913;-88
2023/03/19 00:09:57;;;;;;;;;;;;;;;;;;2087726;28;20029;-88
2023/03/19 00:10:57;;;;;;;10.20;6.30;;;;;;;;;;2079097;28;20382;-89
2023/03/19 00:11:58;;;;;;;11.20;6.03;;;;;;;;;;2087831;28;20044;-88
2023/03/19 00:12:58;;;;;;;;;;;;;;;;;;2088456;28;20082;-89
2023/03/19 00:13:59;;;;;;;8.25;6.10;;;;;;;;;;2088049;28;19913;-89
2023/03/19 00:14:59;;;;;;;;;;;;;;;;;;2079453;28;20550;-88
2023/03/19 00:16:00;;;;;;;11.93;6.33;;;;;;;;;;2079276;28;19918;-89
2023/03/19 00:17:00;;;;;;;;;;;;;;;;;;2088369;28;20074;-87
2023/03/19 00:18:01;;;;;;;9.97;6.23;;;;;;;;;;2079462;28;19955;-88
2023/03/19 00:19:02;;;;;;;9.35;6.40;;;;;;;;;;2078952;28;20071;-88
2023/03/19 00:20:03;;;;;;;8.30;6.10;;;;;;;;;;2079028;28;20017;-87
2023/03/19 00:21:04;;;;;;;10.48;6.65;;;;;;;;;;2079140;28;20029;-87
2023/03/19 00:22:05;;;;;;;;;;;;;;;;;;2079274;28;20524;-88
2023/03/19 00:23:06;;;;;;;10.07;6.57;;;;;;;;;;2078852;28;20004;-87
2023/03/19 00:24:07;;;;;;;11.05;7.00;;;;;;;;;;2079063;28;20027;-88
2023/03/19 00:25:08;;;;;;;10.68;6.78;;;;;;;;;;2078771;28;20080;-88
2023/03/19 00:26:09;;;;;;;12.85;7.15;;;;;;;;;;2070660;28;20033;-89
2023/03/19 00:27:09;;;;;;;;;;;;;;;;;;2079428;28;20368;-88
2023/03/19 00:28:10;;;;;;;12.43;8.07;;;;;;;;;;2078795;28;19909;-88
2023/03/19 00:29:12;;;;;;;13.85;7.70;;;;;;;;;;2078918;28;20025;-88
2023/03/19 00:30:13;;;;;;;13.15;8.45;;;;;;;;;;2078864;28;20116;-88
2023/03/19 00:31:16;;;;;;;11.10;7.82;;;;;;;;;;2079131;28;20100;-86
2023/03/19 00:32:16;;;;;;;12.18;7.90;;;;;;;;;;2088076;28;20028;-88
2023/03/19 00:33:16;;;;;;;;;;;;;;;;;;2088328;28;20017;-87
2023/03/19 00:34:20;;;;;;;12.77;7.97;;;;;;;;;;2088322;28;20343;-87
2023/03/19 00:35:28;;;;;;;12.00;7.57;;;;;;;;;;1639122;28;10240244;-88
2023/03/19 00:36:29;;;;;;;;;;;;;;;;;;2072994;28;20765;-88
2023/03/19 00:37:29;;;;;;;12.63;8.10;;;;;;;;;;2082430;28;19916;-86
2023/03/19 00:38:30;;;;;;;13.35;8.38;;;;;;;;;;2079932;28;20405;-87
2023/03/19 00:39:31;;;;;;;12.77;8.52;;;;;;;;;;2078774;28;20419;-88
2023/03/19 00:40:32;;;;;;;;;;;;;;;;;;2088408;28;20074;-88
2023/03/19 00:41:32;;;;;;;11.43;8.03;;;;;;;;;;2095528;28;19968;-89
2023/03/19 00:42:33;;;;;;;;;;;;;;;;;;2087470;28;20279;-87
2023/03/19 00:43:34;;;;;;;13.20;8.83;;;;;;;;;;2070761;28;19921;-87
2023/03/19 00:44:34;;;;;;;14.20;8.80;;;;;;;;;;1731728;28;10001260;-88
2023/03/19 00:45:35;;;;;;;;;;;;;;;;;;2079025;28;20563;-87
2023/03/19 00:46:35;;;;;;;13.43;8.83;;;;;;;;;;2078774;28;19921;-88
2023/03/19 00:47:36;;;;;;;;;;;;;;;;;;2071125;28;20034;-88
2023/03/19 00:48:38;;;;;;;15.77;9.27;;;;;;;;;;2079090;28;19932;-89
2023/03/19 00:49:38;;;;;;;13.52;9.63;;;;;;;;;;2070964;28;20165;-88
2023/03/19 00:50:39;;;;;;;;;;;;;;;;;;2079472;28;20029;-88
2023/03/19 00:51:42;;;;;;;14.82;9.60;;;;;;;;;;2079112;28;20316;-88
2023/03/19 00:52:43;;;;;;;11.75;8.55;;;;;;;;;;2070812;28;20038;-89
2023/03/19 00:53:43;;;;;;;;;;;;;;;;;;2079659;28;20025;-88
2023/03/19 00:54:44;;;;;;;15.98;9.13;;;;;;;;;;2079070;28;19925;-89
2023/03/19 00:55:45;;;;;;;;;;;;;;;;;;2079373;28;20030;-89
2023/03/19 00:56:45;;;;;;;13.23;8.98;;;;;;;;;;2079161;28;19915;-88
2023/03/19 00:57:45;;;;;;;;;;;;;;;;;;2072021;28;20603;-88
2023/03/19 00:58:46;;;;;;;14.50;9.23;;;;;;;;;;2070506;28;19909;-89
2023/03/19 00:59:47;;;;;;;;;;;;;;;;;;2079507;28;20639;-90
2023/03/19 01:00:47;;;;;;;15.73;9.33;;;;;;;;;;2078755;28;19931;-88
2023/03/19 01:01:47;;;;;;;;;;;;;;;;;;2079797;28;20033;-88
2023/03/19 01:02:48;;;;;;;13.20;8.63;;;;;;;;;;2079050;28;19913;-89
2023/03/19 01:03:48;;;;;;;;;;;;;;;;;;2080031;28;20270;-89
2023/03/19 01:04:49;;;;;;;13.33;8.70;;;;;;;;;;2085219;28;19955;-88
2023/03/19 01:05:49;;;;;;;;;;;;;;;;;;2081943;28;20018;-89
2023/03/19 01:06:50;;;;;;;14.50;8.97;;;;;;;;;;2089733;28;19923;-89
2023/03/19 01:07:50;;;;;;;;;;;;;;;;;;2084865;28;20275;-89
2023/03/19 01:08:51;;;;;;;11.40;7.63;;;;;;;;;;2083026;28;19961;-88
2023/03/19 01:09:51;;;;;;;;;;;;;;;;;;2083308;28;20029;-88
2023/03/19 01:10:52;;;;;;;12.50;8.30;;;;;;;;;;2073926;28;19910;-88
2023/03/19 01:11:52;;;;;;;13.25;8.18;;;;;;;;;;2071162;28;20032;-89
2023/03/19 01:12:52;;;;;;;;;;;;;;;;;;2072154;28;20131;-89
2023/03/19 01:13:53;;;;;;;12.57;8.77;;;;;;;;;;2071358;28;19913;-89
2023/03/19 01:14:53;;;;;;;;;;;;;;;;;;2078851;28;20231;-89
2023/03/19 01:15:54;;;;;;;12.52;8.10;;;;;;;;;;2087989;28;19919;-89
2023/03/19 01:16:54;;;;;;;11.40;7.78;;;;;;;;;;2087666;28;20503;-88
2023/03/19 01:17:55;;;;;;;13.63;9.20;;;;;;;;;;2087584;28;20060;-88
2023/03/19 01:18:55;;;;;;;16.55;8.75;;;;;;;;;;2087810;28;20072;-88
2023/03/19 01:19:56;;;;;;;14.05;8.43;;;;;;;;;;2078710;28;20073;-89
2023/03/19 01:20:56;;;;;;;14.88;7.97;;;;;;;;;;2070799;28;20022;-88
2023/03/19 01:21:56;;;;;;;;;;;;;;;;;;2079669;28;20139;-89
2023/03/19 01:22:57;;;;;;;14.93;8.23;;;;;;;;;;2070890;28;20393;-88
2023/03/19 01:23:57;;;;;;;12.43;7.47;;;;;;;;;;2070686;28;20366;-89
2023/03/19 01:24:58;;;;;;;11.23;7.82;;;;;;;;;;2073552;28;20029;-89
2023/03/19 01:25:58;;;;;;;12.35;8.23;;;;;;;;;;2077204;28;20113;-88
2023/03/19 01:27:05;;;;;;;12.22;8.04;;;;;;;;;;1936085;28;10258115;-89
2023/03/19 01:28:06;;;;;;;;;;;;;;;;;;2086180;28;20250;-87
2023/03/19 01:29:07;;;;;;;12.45;7.30;;;;;;;;;;2091615;28;19912;-89
2023/03/19 01:30:09;;;;;;;11.50;7.55;;;;;;;;;;2089261;28;20080;-88
2023/03/19 01:31:10;;;;;;;11.70;7.22;;;;;;;;;;2088663;28;20032;-88
2023/03/19 01:32:10;;;;;;;11.07;7.28;;;;;;;;;;2089307;28;20570;-84
2023/03/19 01:33:11;;;;;;;;;;;;;;;;;;2082454;28;20120;-88
2023/03/19 01:34:11;;;;;;;9.97;6.70;;;;;;;;;;2078931;28;19909;-88
2023/03/19 01:35:11;;;;;;;12.00;7.10;;;;;;;;;;2078445;28;20135;-88
2023/03/19 01:36:12;;;;;;;;;;;;;;;;;;2071121;28;20552;-87
2023/03/19 01:37:12;;;;;;;12.33;7.23;;;;;;;;;;2078849;28;19916;-87
2023/03/19 01:38:13;;;;;;;;;;;;;;;;;;2079491;28;20505;-88
2023/03/19 01:39:13;;;;;;;11.17;7.10;;;;;;;;;;2070495;28;19956;-88
2023/03/19 01:40:15;;;;;;;;;;;;;;;;;;2079739;28;20092;-88
2023/03/19 01:41:16;;;;;;;13.00;7.10;;;;;;;;;;2087782;28;19927;-88
2023/03/19 01:42:16;;;;;;;;;;;;;;;;;;2079251;28;20029;-89
2023/03/19 01:43:24;;;;;;;12.37;6.50;;;;;;;;;;2079017;28;19909;-88
2023/03/19 01:44:31;;;;;;;11.15;6.80;;;;;;;;;;2087637;28;20376;-88
2023/03/19 01:45:34;;;;;;;10.27;7.00;;;;;;;;;;2087825;28;20040;-88
2023/03/19 01:46:38;;;;;;;11.73;6.45;;;;;;;;;;2087650;28;20490;-87
2023/03/19 01:47:43;;;;;;;10.70;7.30;;;;;;;;;;1858082;28;10001606;-88
2023/03/19 01:48:49;;;;;;;10.85;6.93;;;;;;;;;;2078792;28;20325;-88
2023/03/19 01:49:55;;;;;;;10.23;7.00;;;;;;;;;;2078507;28;20017;-87
2023/03/19 01:50:58;;;;;;;9.27;6.88;;;;;;;;;;2070941;28;20034;-88
2023/03/19 01:52:01;;;;;;;10.10;6.57;;;;;;;;;;2078951;28;20108;-87
2023/03/19 01:53:02;;;;;;;11.90;7.38;;;;;;;;;;2087406;28;20065;-87
2023/03/19 01:54:07;;;;;;;;;;;;;;;;;;2078790;28;20028;-88
2023/03/19 01:55:08;;;;;;;12.98;7.28;;;;;;;;;;2070580;28;20004;-87
2023/03/19 01:56:16;;;;;;;10.13;6.80;;;;;;;;;;2070340;28;20032;-87
2023/03/19 01:57:17;;;;;;;9.20;6.70;;;;;;;;;;2079603;28;20025;-89
2023/03/19 01:58:18;;;;;;;11.27;7.00;;;;;;;;;;2078506;28;20798;-86
2023/03/19 01:59:47;;;;;;;;;;;;;;;;;;2079180;28;20040;-87
2023/03/19 02:00:47;;;;;;;10.43;6.82;;;;;;;;;;2081853;28;19956;-87
2023/03/19 02:02:06;;;;;;;;;;;;;;;;;;2087537;28;20028;-88
2023/03/19 02:03:07;;;;;;;10.25;6.22;;;;;;;;;;2073108;28;19909;-87
2023/03/19 02:04:08;;;;;;;;;;;;;;;;;;2079157;28;20049;-87
2023/03/19 02:05:11;;;;;;;9.60;6.03;;;;;;;;;;2078206;28;19966;-88
2023/03/19 02:06:12;;;;;;;10.68;6.85;;;;;;;;;;2070415;28;20021;-87
2023/03/19 02:07:13;;;;;;;9.45;6.70;;;;;;;;;;2069925;28;20021;-88
2023/03/19 02:08:15;;;;;;;;;;;;;;;;;;2078581;28;20030;-87
2023/03/19 02:09:17;;;;;;;8.27;6.60;;;;;;;;;;2078579;28;19909;-87
2023/03/19 02:10:19;;;;;;;10.15;6.57;;;;;;;;;;2078035;28;20053;-87
2023/03/19 02:11:20;;;;;;;8.57;6.68;;;;;;;;;;2070747;28;20432;-89
2023/03/19 02:12:21;;;;;;;8.27;7.22;;;;;;;;;;2078660;28;20090;-88
2023/03/19 02:13:22;;;;;;;;;;;;;;;;;;2087796;28;20029;-88
2023/03/19 02:14:23;;;;;;;10.40;6.57;;;;;;;;;;2078330;28;19917;-88
2023/03/19 02:15:24;;;;;;;9.35;6.43;;;;;;;;;;2078795;28;20076;-87
2023/03/19 02:16:25;;;;;;;7.85;6.30;;;;;;;;;;2087304;28;20028;-87
2023/03/19 02:17:31;;;;;;;7.72;6.03;;;;;;;;;;2087150;28;20029;-88
2023/03/19 02:18:31;;;;;;;8.80;5.97;;;;;;;;;;2078161;28;20032;-88
2023/03/19 02:19:42;;;;;;;;;;;;;;;;;;2078704;28;20044;-88
2023/03/19 02:20:49;;;;;;;8.15;6.00;;;;;;;;;;2078178;28;19913;-87
2023/03/19 02:21:49;;;;;;;8.13;6.35;;;;;;;;;;2078044;28;20457;-87
2023/03/19 02:22:56;;;;;;;;;;;;;;;;;;2070120;28;20022;-87
2023/03/19 02:24:11;;;;;;;8.57;6.18;;;;;;;;;;2078978;28;19935;-88
2023/03/19 02:25:23;;;;;;;8.18;6.15;;;;;;;;;;2078132;28;20018;-88
2023/03/19 02:26:27;;;;;;;11.32;6.43;;;;;;;;;;2072503;28;20033;-89
2023/03/19 02:27:28;;;;;;;9.55;6.60;;;;;;;;;;1717266;28;10484245;-84
2023/03/19 02:28:30;;;;;;;9.02;6.20;;;;;;;;;;2082125;28;20108;-85
2023/03/19 02:29:31;;;;;;;9.77;6.70;;;;;;;;;;2088878;28;20025;-87
2023/03/19 02:30:32;;;;;;;;;;;;;;;;;;2089149;28;20049;-88
2023/03/19 02:31:32;;;;;;;8.38;5.97;;;;;;;;;;2088894;28;19944;-89
2023/03/19 02:32:33;;;;;;;;;;;;;;;;;;2089112;28;20029;-88
2023/03/19 02:33:33;;;;;;;11.63;6.23;;;;;;;;;;2089154;28;19908;-88
2023/03/19 02:36:18;;;;;;;8.70;5.72;;;;;;;;;;1923194;26;20049;-88
2023/03/19 02:37:23;;;;;;;7.43;6.35;;;;;;;;;;2080683;28;20038;-88
2023/03/19 02:38:25;;;;;;;9.23;6.05;;;;;;;;;;2071661;28;20029;-88
2023/03/19 02:39:33;;;;;;;11.98;6.28;;;;;;;;;;2072075;28;20029;-88
2023/03/19 02:40:38;;;;;;;9.75;6.20;;;;;;;;;;2080504;28;20021;-88
2023/03/19 02:41:40;;;;;;;9.32;6.10;;;;;;;;;;2071549;28;20095;-89
2023/03/19 02:42:41;;;;;;;10.32;6.10;;;;;;;;;;2072136;28;20057;-89
2023/03/19 02:43:41;;;;;;;;;;;;;;;;;;2081047;28;20029;-89
2023/03/19 02:44:42;;;;;;;8.87;6.40;;;;;;;;;;2071496;28;19909;-89
2023/03/19 02:45:42;;;;;;;8.02;5.93;;;;;;;;;;2071506;28;20152;-88
2023/03/19 02:46:42;;;;;;;;;;;;;;;;;;2072100;28;20208;-88
2023/03/19 02:47:43;;;;;;;7.65;5.90;;;;;;;;;;2077677;28;19909;-90
2023/03/19 02:48:43;;;;;;;;;;;;;;;;;;2080675;28;20084;-88
2023/03/19 02:49:44;;;;;;;8.27;6.40;;;;;;;;;;2080763;28;19909;-89
2023/03/19 02:50:45;;;;;;;7.15;5.90;;;;;;;;;;2080866;28;20036;-89
2023/03/19 02:51:45;;;;;;;;;;;;;;;;;;2072313;28;20040;-88
2023/03/19 02:52:46;;;;;;;7.13;5.87;;;;;;;;;;2063808;28;19949;-88
2023/03/19 02:53:46;;;;;;;;;;;;;;;;;;2070627;28;20535;-88
2023/03/19 02:54:47;;;;;;;8.37;5.80;;;;;;;;;;2071664;28;19952;-87
2023/03/19 02:55:47;;;;;;;;;;;;;;;;;;2071888;28;20041;-89
2023/03/19 02:56:48;;;;;;;9.50;6.33;;;;;;;;;;2079812;28;19909;-88
2023/03/19 02:57:48;;;;;;;;;;;;;;;;;;2088430;28;20104;-89
2023/03/19 02:58:48;;;;;;;8.57;6.30;;;;;;;;;;2080457;28;19909;-88
2023/03/19 02:59:49;;;;;;;;;;;;;;;;;;2072043;28;20430;-87
2023/03/19 03:00:51;;;;;;;9.73;6.55;;;;;;;;;;2072001;28;20026;-89
2023/03/19 03:01:52;;;;;;;9.00;6.28;;;;;;;;;;2071802;28;20424;-88
2023/03/19 03:02:52;;;;;;;;;;;;;;;;;;2064200;28;20140;-87
2023/03/19 03:03:53;;;;;;;9.30;6.40;;;;;;;;;;2064994;28;19910;-87
2023/03/19 03:04:53;;;;;;;;;;;;;;;;;;2063842;28;20096;-89
2023/03/19 03:05:54;;;;;;;11.03;6.30;;;;;;;;;;2071084;28;19921;-88
2023/03/19 03:06:54;;;;;;;;;;;;;;;;;;2079715;28;20057;-87
2023/03/19 03:07:54;;;;;;;7.90;6.07;;;;;;;;;;2079578;28;19909;-86
2023/03/19 03:08:56;;;;;;;;;;;;;;;;;;2071668;28;20428;-87
2023/03/19 03:09:57;;;;;;;9.65;6.43;;;;;;;;;;2071070;28;19909;-87
2023/03/19 03:10:57;;;;;;;;;;;;;;;;;;2080784;28;20123;-89
2023/03/19 03:11:57;;;;;;;10.20;6.27;;;;;;;;;;2071268;28;20594;-88
2023/03/19 03:12:58;;;;;;;;;;;;;;;;;;2071597;28;20061;-88
2023/03/19 03:13:58;;;;;;;10.30;6.63;;;;;;;;;;2071225;28;19944;-88
2023/03/19 03:14:59;;;;;;;8.88;5.82;;;;;;;;;;2070922;28;20105;-87
2023/03/19 03:16:00;;;;;;;10.18;6.13;;;;;;;;;;2070947;28;20021;-87
2023/03/19 03:17:00;;;;;;;;;;;;;;;;;;2071607;28;20068;-86
2023/03/19 03:18:01;;;;;;;9.47;6.23;;;;;;;;;;2079558;28;20304;-88
2023/03/19 03:19:01;;;;;;;9.88;6.45;;;;;;;;;;2079763;28;20238;-87
2023/03/19 03:20:03;;;;;;;7.22;5.75;;;;;;;;;;2079817;28;20016;-86
2023/03/19 03:21:04;;;;;;;8.45;6.13;;;;;;;;;;2081095;28;20485;-87
2023/03/19 03:22:04;;;;;;;;;;;;;;;;;;2081903;28;20017;-87
2023/03/19 03:23:04;;;;;;;10.60;6.00;;;;;;;;;;2082710;28;19909;-86
2023/03/19 03:24:05;;;;;;;;;;;;;;;;;;2083078;28;20502;-88
2023/03/19 03:25:06;;;;;;;9.07;6.83;;;;;;;;;;2080196;28;19909;-88
2023/03/19 03:26:07;;;;;;;;;;;;;;;;;;2080590;28;20564;-88
2023/03/19 03:27:08;;;;;;;7.63;6.00;;;;;;;;;;2079869;28;19909;-87
2023/03/19 03:28:09;;;;;;;8.73;5.95;;;;;;;;;;2079938;28;20439;-87
2023/03/19 03:29:09;;;;;;;7.50;5.72;;;;;;;;;;2079601;28;20025;-88
2023/03/19 03:30:10;;;;;;;;;;;;;;;;;;2080559;28;20033;-88
2023/03/19 03:31:10;;;;;;;9.23;5.73;;;;;;;;;;2071315;28;20000;-88
2023/03/19 03:32:11;;;;;;;9.43;6.13;;;;;;;;;;2071112;28;20032;-89
2023/03/19 03:33:11;;;;;;;7.95;5.78;;;;;;;;;;2079332;28;20432;-89
2023/03/19 03:34:12;;;;;;;9.20;6.03;;;;;;;;;;2079390;28;20188;-89
2023/03/19 03:35:14;;;;;;;6.82;5.75;;;;;;;;;;2080109;28;20108;-89
2023/03/19 03:36:15;;;;;;;9.07;6.28;;;;;;;;;;2071367;28;20543;-87
2023/03/19 03:37:16;;;;;;;;;;;;;;;;;;2072189;28;20108;-88
2023/03/19 03:38:17;;;;;;;8.82;6.28;;;;;;;;;;2079647;28;19909;-88
2023/03/19 03:39:17;;;;;;;7.82;5.90;;;;;;;;;;2071195;28;20539;-89
2023/03/19 03:40:18;;;;;;;;;;;;;;;;;;2072000;28;20018;-87
2023/03/19 03:41:18;;;;;;;8.77;5.97;;;;;;;;;;2080175;28;19983;-87
2023/03/19 03:42:19;;;;;;;7.85;6.00;;;;;;;;;;2080262;28;20435;-88
2023/03/19 03:43:20;;;;;;;;;;;;;;;;;;2080666;28;20076;-88
2023/03/19 03:44:20;;;;;;;8.98;5.97;;;;;;;;;;2081141;28;19909;-88
2023/03/19 03:45:20;;;;;;;;;;;;;;;;;;2082066;28;20037;-87
2023/03/19 03:46:21;;;;;;;9.43;5.72;;;;;;;;;;2088823;28;20004;-88
2023/03/19 03:47:21;;;;;;;7.38;5.90;;;;;;;;;;2080772;28;20017;-88
2023/03/19 03:48:22;;;;;;;;;;;;;;;;;;2073930;28;20586;-87
2023/03/19 03:49:22;;;;;;;8.48;5.80;;;;;;;;;;2076898;28;19905;-88
2023/03/19 03:50:23;;;;;;;8.60;5.68;;;;;;;;;;2079311;28;20032;-88
2023/03/19 03:51:23;;;;;;;9.90;6.25;;;;;;;;;;2078974;28;20086;-89
2023/03/19 03:52:24;;;;;;;;;;;;;;;;;;2073206;28;20606;-87
2023/03/19 03:53:24;;;;;;;8.95;6.00;;;;;;;;;;2071517;28;19913;-88
2023/03/19 03:54:24;;;;;;;;;;;;;;;;;;2063816;28;20112;-88
2023/03/19 03:55:25;;;;;;;7.73;5.90;;;;;;;;;;2071446;28;19996;-89
2023/03/19 03:56:25;;;;;;;9.55;5.90;;;;;;;;;;2080068;28;20105;-88
2023/03/19 03:57:26;;;;;;;8.85;5.60;;;;;;;;;;2071013;28;20522;-88
2023/03/19 03:58:26;;;;;;;;;;;;;;;;;;2071552;28;20042;-87
2023/03/19 03:59:27;;;;;;;7.33;5.50;;;;;;;;;;2071332;28;19992;-88
2023/03/19 04:00:27;;;;;;;;;;;;;;;;;;2079551;28;20443;-87
2023/03/19 04:01:28;;;;;;;7.93;5.47;;;;;;;;;;2079423;28;19932;-89
2023/03/19 04:02:29;;;;;;;10.48;6.10;;;;;;;;;;2080007;28;20095;-88
2023/03/19 04:03:29;;;;;;;;;;;;;;;;;;2080659;28;20186;-89
2023/03/19 04:04:30;;;;;;;7.13;5.40;;;;;;;;;;2079308;28;19913;-88
2023/03/19 04:05:31;;;;;;;;;;;;;;;;;;2071508;28;20040;-88
2023/03/19 04:06:31;;;;;;;7.03;5.67;;;;;;;;;;2071175;28;19913;-87
2023/03/19 04:07:31;;;;;;;;;;;;;;;;;;2081872;28;20033;-88
2023/03/19 04:08:32;;;;;;;10.63;6.03;;;;;;;;;;2079036;28;19909;-89
2023/03/19 04:09:32;;;;;;;8.73;6.10;;;;;;;;;;2080708;28;20061;-87
2023/03/19 04:10:34;;;;;;;9.30;6.15;;;;;;;;;;2088090;28;20029;-88
2023/03/19 04:11:35;;;;;;;7.78;6.10;;;;;;;;;;2073384;28;20133;-88
2023/03/19 04:12:36;;;;;;;;;;;;;;;;;;2072654;28;20030;-89
2023/03/19 04:13:37;;;;;;;9.57;5.75;;;;;;;;;;2080544;28;20295;-86
2023/03/19 04:14:38;;;;;;;7.95;5.90;;;;;;;;;;2080537;28;20039;-87
2023/03/19 04:15:40;;;;;;;;;;;;;;;;;;2080566;28;20139;-89
2023/03/19 04:16:42;;;;;;;8.38;5.97;;;;;;;;;;2079879;28;20054;-87
2023/03/19 04:17:44;;;;;;;7.13;5.57;;;;;;;;;;2071977;28;20101;-88
2023/03/19 04:18:45;;;;;;;8.43;6.43;;;;;;;;;;2073962;28;20022;-87
2023/03/19 04:19:45;;;;;;;;;;;;;;;;;;2074146;28;20108;-88
2023/03/19 04:20:46;;;;;;;7.78;5.90;;;;;;;;;;2070974;28;20426;-87
2023/03/19 04:21:46;;;;;;;7.85;6.20;;;;;;;;;;2079805;28;20029;-88
2023/03/19 04:22:47;;;;;;;10.00;6.00;;;;;;;;;;2079795;28;20113;-88
2023/03/19 04:23:47;;;;;;;;;;;;;;;;;;2071513;28;20014;-88
2023/03/19 04:24:48;;;;;;;8.27;5.77;;;;;;;;;;2071360;28;19909;-89
2023/03/19 04:25:48;;;;;;;;;;;;;;;;;;2081200;28;20029;-86
2023/03/19 04:26:49;;;;;;;10.53;6.30;;;;;;;;;;2087587;28;19909;-89
2023/03/19 04:27:49;;;;;;;;;;;;;;;;;;2079613;28;20025;-88
2023/03/19 04:28:49;;;;;;;8.43;5.60;;;;;;;;;;2071091;28;19913;-89
2023/03/19 04:29:50;;;;;;;8.70;6.10;;;;;;;;;;2079785;28;20051;-88
2023/03/19 04:30:50;;;;;;;8.70;6.45;;;;;;;;;;2070944;28;20022;-88
2023/03/19 04:31:51;;;;;;;;;;;;;;;;;;2063130;28;20061;-87
2023/03/19 04:32:52;;;;;;;7.95;5.25;;;;;;;;;;2070072;28;19909;-89
2023/03/19 04:33:52;;;;;;;;;;;;;;;;;;2080157;28;20053;-87
2023/03/19 04:34:54;;;;;;;7.73;5.93;;;;;;;;;;2087482;28;19909;-89
2023/03/19 04:35:55;;;;;;;9.02;5.25;;;;;;;;;;2087056;28;20487;-87
2023/03/19 04:36:56;;;;;;;10.15;6.07;;;;;;;;;;2079855;28;20057;-89
2023/03/19 04:37:56;;;;;;;6.93;5.20;;;;;;;;;;2070411;28;20038;-88
2023/03/19 04:38:57;;;;;;;;;;;;;;;;;;2071519;28;20029;-89
2023/03/19 04:39:58;;;;;;;9.30;6.00;;;;;;;;;;2079062;28;20436;-87
2023/03/19 04:40:58;;;;;;;7.32;5.60;;;;;;;;;;2070834;28;20060;-88
2023/03/19 04:41:59;;;;;;;;;;;;;;;;;;2079248;28;20103;-88
2023/03/19 04:42:59;;;;;;;9.97;5.70;;;;;;;;;;2087203;28;19909;-89
2023/03/19 04:44:00;;;;;;;;;;;;;;;;;;2072311;28;20696;-88
2023/03/19 04:45:01;;;;;;;8.95;5.53;;;;;;;;;;2079861;28;19909;-88
2023/03/19 04:46:01;;;;;;;;;;;;;;;;;;2071074;28;20083;-88
2023/03/19 04:47:02;;;;;;;7.80;5.95;;;;;;;;;;2070924;28;19972;-88
2023/03/19 04:48:03;;;;;;;8.15;6.13;;;;;;;;;;2070607;28;20018;-88
2023/03/19 04:49:03;;;;;;;;;;;;;;;;;;2071279;28;20059;-88
2023/03/19 04:50:06;;;;;;;7.00;5.30;;;;;;;;;;2069889;28;20165;-89
2023/03/19 04:51:10;;;;;;;7.82;5.32;;;;;;;;;;2071181;28;20129;-89
2023/03/19 04:52:10;;;;;;;7.15;5.32;;;;;;;;;;2072299;28;20025;-88
2023/03/19 04:53:10;;;;;;;;;;;;;;;;;;2071383;28;20045;-89
2023/03/19 04:54:11;;;;;;;9.33;6.03;;;;;;;;;;2079125;28;19909;-89
2023/03/19 04:55:11;;;;;;;7.72;5.18;;;;;;;;;;2087277;28;20044;-88
2023/03/19 04:56:15;;;;;;;7.55;5.43;;;;;;;;;;2070679;28;20513;-89
2023/03/19 04:57:15;;;;;;;7.53;5.50;;;;;;;;;;2065022;28;20026;-88
2023/03/19 04:58:16;;;;;;;;;;;;;;;;;;2079512;28;20464;-87
2023/03/19 04:59:16;;;;;;;9.13;5.57;;;;;;;;;;2080010;28;19940;-88
2023/03/19 05:00:17;;;;;;;10.18;6.18;;;;;;;;;;2079652;28;20021;-88
2023/03/19 05:01:18;;;;;;;7.82;5.82;;;;;;;;;;2070925;28;20018;-88
2023/03/19 05:02:19;;;;;;;7.50;5.10;;;;;;;;;;2070977;28;20026;-88
2023/03/19 05:03:23;;;;;;;8.73;5.22;;;;;;;;;;2079653;28;20476;-88
2023/03/19 05:04:25;;;;;;;7.10;4.97;;;;;;;;;;2079528;28;20417;-88
2023/03/19 05:05:25;;;;;;;7.05;5.57;;;;;;;;;;2079544;28;20133;-88
2023/03/19 05:06:26;;;;;;;;;;;;;;;;;;2079964;28;20155;-88
2023/03/19 05:07:26;;;;;;;8.07;5.32;;;;;;;;;;2070795;28;19917;-87
2023/03/19 05:08:27;;;;;;;9.82;5.70;;;;;;;;;;2071155;28;20036;-88
2023/03/19 05:09:29;;;;;;;;;;;;;;;;;;2080135;28;20017;-89
2023/03/19 05:10:31;;;;;;;6.65;5.00;;;;;;;;;;2070548;28;19944;-89
2023/03/19 05:11:31;;;;;;;8.98;4.93;;;;;;;;;;2062632;28;20026;-88
2023/03/19 05:12:32;;;;;;;;;;;;;;;;;;2067581;28;20474;-88
2023/03/19 05:13:32;;;;;;;7.63;5.10;;;;;;;;;;2079488;28;19980;-89
2023/03/19 05:14:32;;;;;;;;;;;;;;;;;;2073850;28;20349;-86
2023/03/19 05:15:33;;;;;;;7.30;5.35;;;;;;;;;;2072207;28;19944;-88
2023/03/19 05:16:34;;;;;;;;;;;;;;;;;;2079969;28;20100;-87
2023/03/19 05:17:34;;;;;;;5.80;4.55;;;;;;;;;;2079764;28;19971;-89
2023/03/19 05:18:35;;;;;;;7.55;5.28;;;;;;;;;;2070486;28;20088;-87
2023/03/19 05:19:38;;;;;;;8.43;5.20;;;;;;;;;;2070559;28;20417;-88
2023/03/19 05:20:39;;;;;;;7.45;5.13;;;;;;;;;;2079777;28;20017;-88
2023/03/19 05:21:39;;;;;;;8.60;5.57;;;;;;;;;;2079795;28;20021;-89
2023/03/19 05:22:40;;;;;;;;;;;;;;;;;;2080069;28;20025;-89
2023/03/19 05:23:41;;;;;;;7.87;5.50;;;;;;;;;;2080135;28;19908;-89
2023/03/19 05:24:42;;;;;;;9.02;4.85;;;;;;;;;;2079839;28;20064;-87
2023/03/19 05:25:42;;;;;;;;;;;;;;;;;;2071133;28;20393;-87
2023/03/19 05:26:43;;;;;;;8.52;5.47;;;;;;;;;;2070611;28;19913;-87
2023/03/19 05:27:43;;;;;;;;;;;;;;;;;;2079869;28;20415;-87
2023/03/19 05:28:44;;;;;;;7.53;5.13;;;;;;;;;;2079846;28;19992;-88
2023/03/19 05:29:45;;;;;;;7.95;5.40;;;;;;;;;;2071681;28;20045;-89
2023/03/19 05:30:46;;;;;;;7.85;5.57;;;;;;;;;;1717197;28;10236569;-89
2023/03/19 05:31:46;;;;;;;7.50;5.65;;;;;;;;;;2070842;28;20079;-89
2023/03/19 05:32:47;;;;;;;9.15;5.47;;;;;;;;;;2079121;28;20045;-89
2023/03/19 05:33:48;;;;;;;7.20;5.28;;;;;;;;;;2073185;28;20045;-87
2023/03/19 05:34:48;;;;;;;;;;;;;;;;;;2071250;28;20485;-88
2023/03/19 05:35:48;;;;;;;9.17;5.87;;;;;;;;;;2079568;28;19933;-89
2023/03/19 05:36:49;;;;;;;;;;;;;;;;;;2070922;28;20525;-88
2023/03/19 05:37:49;;;;;;;8.20;5.80;;;;;;;;;;2078906;28;19909;-89
2023/03/19 05:38:50;;;;;;;9.95;5.68;;;;;;;;;;2086873;28;20060;-89
2023/03/19 05:39:50;;;;;;;;;;;;;;;;;;2071095;28;20029;-86
2023/03/19 05:40:51;;;;;;;8.73;5.60;;;;;;;;;;2070723;28;20284;-87
2023/03/19 05:41:51;;;;;;;7.68;4.90;;;;;;;;;;2070757;28;20503;-88
2023/03/19 05:42:52;;;;;;;8.65;5.78;;;;;;;;;;2070317;28;20481;-87
2023/03/19 05:43:52;;;;;;;9.07;6.15;;;;;;;;;;2070261;28;20516;-89
2023/03/19 05:44:53;;;;;;;9.88;5.80;;;;;;;;;;2079299;28;20452;-89
2023/03/19 05:45:53;;;;;;;;;;;;;;;;;;2071285;28;20029;-86
2023/03/19 05:46:54;;;;;;;7.27;5.70;;;;;;;;;;2061944;28;20408;-89
2023/03/19 05:47:55;;;;;;;9.43;5.90;;;;;;;;;;2070626;28;20097;-90
2023/03/19 05:48:55;;;;;;;;;;;;;;;;;;2070952;28;20026;-87
2023/03/19 05:49:56;;;;;;;8.07;5.73;;;;;;;;;;2070172;28;19917;-89
2023/03/19 05:50:58;;;;;;;8.15;5.35;;;;;;;;;;2068574;28;20050;-89
2023/03/19 05:51:59;;;;;;;9.73;5.43;;;;;;;;;;2062435;28;20026;-88
2023/03/19 05:52:59;;;;;;;6.00;5.10;;;;;;;;;;1722884;28;10054620;-88
2023/03/19 05:54:00;;;;;;;;;;;;;;;;;;2062682;28;20157;-89
2023/03/19 05:55:00;;;;;;;7.65;5.32;;;;;;;;;;2070384;28;20193;-88
2023/03/19 05:56:01;;;;;;;6.70;4.85;;;;;;;;;;2078537;28;20049;-89
2023/03/19 05:57:01;;;;;;;;;;;;;;;;;;2070762;28;20022;-87
2023/03/19 05:58:01;;;;;;;14.32;7.75;;;;;;;;;;2077977;28;19916;-89
2023/03/19 05:59:04;;;;;;;;;;;;;;;;;;2078749;28;20428;-87
2023/03/19 06:00:11;;;;;;;7.35;5.13;;;;;;;;;;2070745;28;19915;-86
2023/03/19 06:01:12;;;;;;;17.15;9.73;;;;;;;;;;2070403;28;20018;-86
2023/03/19 06:02:16;;;;;;;;;;;;;;;;;;2062302;28;20038;-87
2023/03/19 06:03:23;;;;;;;7.45;5.13;;;;;;;;;;2070116;28;19909;-87
2023/03/19 06:04:35;;;;;;;6.85;4.93;;;;;;;;;;2061377;28;20473;-87
2023/03/19 06:05:35;;;;;;;7.38;5.35;;;;;;;;;;2063289;28;20528;-87
2023/03/19 06:06:36;;;;;;;;;;;;;;;;;;2070702;28;20061;-89
2023/03/19 06:07:36;;;;;;;8.90;6.50;;;;;;;;;;2076134;28;20407;-87
2023/03/19 06:08:37;;;;;;;11.88;6.50;;;;;;;;;;2070895;28;20207;-86
2023/03/19 06:09:37;;;;;;;9.02;6.30;;;;;;;;;;2071940;28;20479;-84
2023/03/19 06:10:39;;;;;;;8.75;6.00;;;;;;;;;;2080191;28;20471;-87
2023/03/19 06:11:40;;;;;;;;;;;;;;;;;;2079670;28;20037;-86
2023/03/19 06:12:41;;;;;;;8.55;5.38;;;;;;;;;;2079206;28;19956;-87
2023/03/19 06:13:42;;;;;;;9.13;5.93;;;;;;;;;;2069836;28;20018;-87
2023/03/19 06:14:42;;;;;;;7.88;5.45;;;;;;;;;;2061644;28;20078;-87
2023/03/19 06:15:43;;;;;;;;;;;;;;;;;;2062190;28;20121;-87
2023/03/19 06:16:43;;;;;;;9.27;5.47;;;;;;;;;;2078063;28;19927;-87
2023/03/19 06:17:43;;;;;;;;;;;;;;;;;;2086732;28;20055;-87
2023/03/19 06:18:47;;;;;;;10.17;5.37;;;;;;;;;;2069968;28;19967;-86
2023/03/19 06:19:51;;;;;;;10.23;5.90;;;;;;;;;;2069875;28;20018;-87
2023/03/19 06:20:52;;;;;;;8.27;6.00;;;;;;;;;;2070073;28;20131;-86
2023/03/19 06:21:52;;;;;;;;;;;;;;;;;;2070533;28;20033;-87